createdAt,value
2019-03-20T00:00:40.308Z,20.70
2019-03-20T00:01:43.999Z,17.30
2019-03-20T00:02:40.368Z,19.50
2019-03-20T00:03:40.403Z,19.40
2019-03-20T00:04:49.243Z,17.30
2019-03-20T00:05:40.473Z,17.40
2019-03-20T00:06:40.507Z,16.50
2019-03-20T00:07:40.543Z,18.00
2019-03-20T00:08:40.579Z,17.20
2019-03-20T00:09:40.613Z,15.20
2019-03-20T00:10:40.647Z,18.10
2019-03-20T00:11:40.683Z,18.70
2019-03-20T00:12:40.715Z,15.00
2019-03-20T00:13:40.757Z,16.20
2019-03-20T00:14:40.796Z,15.00
2019-03-20T00:15:40.820Z,16.80
2019-03-20T00:16:40.855Z,17.40
2019-03-20T00:17:40.891Z,15.80
2019-03-20T00:18:40.923Z,13.50
2019-03-20T00:19:40.958Z,16.80
2019-03-20T00:20:40.994Z,11.30
2019-03-20T00:21:41.034Z,12.30
2019-03-20T00:22:43.200Z,13.10
2019-03-20T00:23:41.100Z,12.90
2019-03-20T00:24:41.133Z,14.70
2019-03-20T00:25:41.176Z,17.70
2019-03-20T00:26:41.200Z,14.90
2019-03-20T00:27:41.238Z,17.80
2019-03-20T00:28:41.284Z,13.70
2019-03-20T00:29:41.306Z,17.80
2019-03-20T00:30:41.349Z,14.70
2019-03-20T00:31:41.380Z,16.60
2019-03-20T00:32:41.416Z,14.50
2019-03-20T00:33:41.496Z,17.60
2019-03-20T00:34:41.486Z,12.80
2019-03-20T00:35:41.516Z,14.60
2019-03-20T00:36:41.553Z,11.70
2019-03-20T00:37:41.585Z,15.50
2019-03-20T00:38:41.628Z,10.80
2019-03-20T00:39:41.654Z,13.20
2019-03-20T00:40:41.697Z,13.30
2019-03-20T00:41:41.725Z,13.80
2019-03-20T00:42:41.761Z,13.90
2019-03-20T00:43:41.801Z,15.70
2019-03-20T00:44:41.828Z,15.10
2019-03-20T00:45:41.862Z,16.70
2019-03-20T00:46:41.903Z,12.80
2019-03-20T00:47:41.930Z,12.50
2019-03-20T00:48:41.965Z,15.90
2019-03-20T00:49:42.000Z,13.10
2019-03-20T00:50:42.037Z,11.30
2019-03-20T00:51:42.070Z,10.10
2019-03-20T00:52:42.103Z,17.00
2019-03-20T00:53:42.138Z,11.50
2019-03-20T00:54:42.173Z,13.50
2019-03-20T00:55:42.219Z,11.80
2019-03-20T00:56:42.241Z,13.10
2019-03-20T00:57:42.277Z,13.00
2019-03-20T00:58:42.314Z,15.10
2019-03-20T00:59:42.346Z,13.40
2019-03-20T01:00:42.380Z,15.20
2019-03-20T01:01:42.421Z,22.30
2019-03-20T01:02:42.494Z,21.80
2019-03-20T01:03:42.484Z,15.50
2019-03-20T01:04:42.521Z,15.80
2019-03-20T01:05:42.554Z,13.70
2019-03-20T01:06:42.588Z,13.30
2019-03-20T01:07:42.623Z,13.70
2019-03-20T01:08:42.670Z,12.80
2019-03-20T01:09:42.692Z,11.70
2019-03-20T01:10:42.729Z,14.30
2019-03-20T01:11:42.761Z,14.90
2019-03-20T01:12:42.802Z,13.20
2019-03-20T01:13:42.833Z,11.00
2019-03-20T01:14:42.866Z,10.10
2019-03-20T01:15:42.901Z,12.10
2019-03-20T01:16:42.935Z,14.50
2019-03-20T01:17:42.970Z,12.90
2019-03-20T01:18:43.009Z,14.10
2019-03-20T01:19:43.053Z,9.70
2019-03-20T01:20:43.079Z,11.40
2019-03-20T01:21:43.162Z,12.30
2019-03-20T01:22:43.146Z,12.80
2019-03-20T01:23:43.189Z,10.80
2019-03-20T01:24:43.214Z,12.20
2019-03-20T01:25:43.248Z,11.50
2019-03-20T01:26:43.287Z,10.30
2019-03-20T01:27:43.323Z,13.60
2019-03-20T01:28:43.354Z,11.40
2019-03-20T01:29:43.383Z,12.10
2019-03-20T01:30:43.420Z,11.00
2019-03-20T01:31:43.455Z,9.60
2019-03-20T01:32:43.489Z,14.70
2019-03-20T01:33:43.523Z,13.50
2019-03-20T01:34:43.563Z,20.10
2019-03-20T01:35:43.591Z,22.10
2019-03-20T01:36:43.628Z,22.20
2019-03-20T01:37:43.662Z,20.60
2019-03-20T01:38:43.695Z,18.40
2019-03-20T01:39:43.731Z,20.90
2019-03-20T01:40:43.764Z,23.40
2019-03-20T01:41:43.800Z,18.50
2019-03-20T01:42:43.833Z,19.40
2019-03-20T01:43:43.868Z,19.10
2019-03-20T01:44:43.906Z,20.60
2019-03-20T01:45:43.938Z,18.00
2019-03-20T01:46:43.975Z,19.00
2019-03-20T01:47:44.007Z,16.40
2019-03-20T01:48:44.044Z,16.90
2019-03-20T01:49:44.076Z,15.80
2019-03-20T01:50:44.110Z,11.80
2019-03-20T01:51:44.145Z,14.60
2019-03-20T01:52:44.181Z,14.30
2019-03-20T01:53:44.214Z,15.70
2019-03-20T01:54:44.249Z,13.70
2019-03-20T01:55:44.285Z,16.10
2019-03-20T01:56:44.319Z,12.70
2019-03-20T01:57:44.357Z,15.70
2019-03-20T01:58:44.387Z,12.40
2019-03-20T01:59:44.421Z,10.70
2019-03-20T02:00:44.456Z,11.10
2019-03-20T02:01:44.496Z,16.60
2019-03-20T02:02:44.532Z,11.00
2019-03-20T02:03:44.564Z,11.60
2019-03-20T02:04:44.593Z,12.20
2019-03-20T02:05:44.638Z,13.80
2019-03-20T02:06:44.665Z,13.40
2019-03-20T02:07:44.698Z,17.30
2019-03-20T02:08:44.765Z,26.10
2019-03-20T02:09:44.767Z,41.80
2019-03-20T02:10:44.802Z,36.80
2019-03-20T02:11:44.837Z,33.10
2019-03-20T02:12:44.873Z,30.50
2019-03-20T02:13:44.907Z,20.60
2019-03-20T02:14:44.942Z,13.10
2019-03-20T02:15:44.975Z,15.50
2019-03-20T02:16:45.012Z,10.70
2019-03-20T02:17:45.046Z,13.50
2019-03-20T02:18:45.079Z,12.90
2019-03-20T02:19:45.116Z,11.30
2019-03-20T02:20:45.147Z,15.50
2019-03-20T02:21:45.183Z,15.70
2019-03-20T02:22:45.219Z,11.50
2019-03-20T02:23:45.254Z,12.30
2019-03-20T02:24:45.293Z,11.20
2019-03-20T02:25:45.321Z,12.60
2019-03-20T02:26:45.354Z,15.00
2019-03-20T02:27:45.390Z,11.40
2019-03-20T02:28:45.422Z,13.30
2019-03-20T02:29:45.458Z,10.90
2019-03-20T02:30:45.497Z,12.70
2019-03-20T02:31:45.526Z,15.50
2019-03-20T02:32:45.594Z,12.00
2019-03-20T02:33:45.599Z,12.20
2019-03-20T02:34:45.631Z,12.20
2019-03-20T02:35:51.863Z,15.30
2019-03-20T02:36:45.700Z,12.00
2019-03-20T02:37:45.747Z,13.40
2019-03-20T02:38:45.771Z,15.50
2019-03-20T02:39:45.817Z,14.80
2019-03-20T02:40:45.839Z,13.20
2019-03-20T02:41:45.870Z,12.20
2019-03-20T02:42:45.978Z,15.10
2019-03-20T02:43:45.941Z,11.40
2019-03-20T02:44:45.980Z,13.20
2019-03-20T02:45:46.016Z,11.40
2019-03-20T02:46:46.044Z,13.60
2019-03-20T02:47:46.084Z,12.80
2019-03-20T02:48:46.121Z,16.40
2019-03-20T02:49:46.149Z,9.60
2019-03-20T02:50:46.180Z,10.20
2019-03-20T02:51:46.224Z,13.60
2019-03-20T02:52:46.249Z,12.50
2019-03-20T02:53:46.296Z,11.00
2019-03-20T02:54:46.317Z,12.20
2019-03-20T02:55:46.370Z,12.40
2019-03-20T02:56:46.388Z,12.70
2019-03-20T02:57:46.433Z,10.60
2019-03-20T02:58:46.606Z,11.20
2019-03-20T02:59:46.489Z,10.20
2019-03-20T03:00:46.525Z,11.40
2019-03-20T03:01:46.560Z,12.20
2019-03-20T03:02:46.593Z,15.90
2019-03-20T03:03:46.627Z,10.90
2019-03-20T03:04:46.664Z,11.20
2019-03-20T03:05:46.708Z,12.50
2019-03-20T03:06:46.731Z,9.20
2019-03-20T03:07:46.772Z,13.00
2019-03-20T03:08:46.817Z,12.20
2019-03-20T03:09:46.835Z,13.90
2019-03-20T03:10:46.866Z,11.20
2019-03-20T03:11:46.915Z,14.50
2019-03-20T03:12:46.941Z,11.60
2019-03-20T03:13:46.980Z,13.00
2019-03-20T03:14:47.006Z,10.90
2019-03-20T03:15:47.041Z,15.20
2019-03-20T03:16:47.080Z,12.50
2019-03-20T03:17:47.115Z,15.20
2019-03-20T03:18:47.144Z,15.00
2019-03-20T03:19:47.178Z,14.60
2019-03-20T03:20:47.213Z,13.80
2019-03-20T03:21:47.249Z,12.20
2019-03-20T03:22:47.287Z,17.80
2019-03-20T03:23:47.322Z,13.50
2019-03-20T03:24:47.358Z,13.40
2019-03-20T03:25:50.005Z,14.10
2019-03-20T03:26:47.418Z,13.80
2019-03-20T03:27:47.454Z,12.80
2019-03-20T03:28:47.496Z,15.00
2019-03-20T03:29:47.521Z,14.10
2019-03-20T03:30:47.558Z,12.00
2019-03-20T03:31:47.607Z,13.90
2019-03-20T03:32:47.709Z,11.70
2019-03-20T03:33:47.658Z,13.20
2019-03-20T03:34:47.697Z,12.00
2019-03-20T03:35:47.733Z,11.80
2019-03-20T03:36:47.762Z,11.20
2019-03-20T03:37:47.797Z,15.20
2019-03-20T03:38:47.832Z,12.50
2019-03-20T03:39:47.871Z,15.30
2019-03-20T03:40:47.905Z,12.10
2019-03-20T03:41:47.987Z,11.60
2019-03-20T03:42:47.992Z,11.00
2019-03-20T03:43:48.004Z,12.40
2019-03-20T03:44:48.036Z,12.30
2019-03-20T03:45:48.071Z,12.00
2019-03-20T03:46:48.103Z,14.60
2019-03-20T03:47:48.148Z,13.10
2019-03-20T03:48:48.175Z,15.00
2019-03-20T03:49:48.207Z,13.40
2019-03-20T03:50:48.605Z,16.10
2019-03-20T03:51:48.281Z,14.30
2019-03-20T03:52:48.310Z,14.10
2019-03-20T03:53:48.344Z,15.00
2019-03-20T03:54:48.376Z,14.80
2019-03-20T03:55:48.421Z,11.50
2019-03-20T03:56:48.449Z,13.70
2019-03-20T03:57:48.487Z,12.40
2019-03-20T03:58:48.514Z,15.30
2019-03-20T03:59:48.558Z,15.20
2019-03-20T04:00:48.589Z,13.70
2019-03-20T04:01:48.618Z,11.00
2019-03-20T04:02:48.683Z,12.50
2019-03-20T04:03:48.693Z,12.90
2019-03-20T04:04:48.721Z,12.90
2019-03-20T04:05:48.815Z,14.00
2019-03-20T04:06:48.800Z,10.70
2019-03-20T04:07:48.826Z,12.20
2019-03-20T04:08:48.877Z,12.60
2019-03-20T04:09:48.893Z,12.70
2019-03-20T04:10:48.926Z,13.90
2019-03-20T04:11:48.960Z,14.10
2019-03-20T04:12:49.003Z,13.60
2019-03-20T04:13:49.053Z,12.00
2019-03-20T04:14:49.069Z,15.50
2019-03-20T04:15:49.098Z,13.80
2019-03-20T04:16:49.133Z,13.00
2019-03-20T04:17:49.195Z,12.80
2019-03-20T04:18:49.203Z,12.40
2019-03-20T04:19:49.236Z,12.40
2019-03-20T04:20:49.272Z,16.20
2019-03-20T04:21:49.311Z,19.00
2019-03-20T04:22:49.350Z,12.30
2019-03-20T04:23:49.375Z,16.50
2019-03-20T04:24:49.408Z,13.30
2019-03-20T04:25:49.444Z,11.30
2019-03-20T04:26:49.486Z,9.50
2019-03-20T04:27:49.512Z,13.60
2019-03-20T04:28:49.546Z,11.30
2019-03-20T04:29:49.581Z,13.90
2019-03-20T04:30:49.614Z,12.50
2019-03-20T04:31:49.652Z,11.20
2019-03-20T04:32:49.682Z,12.20
2019-03-20T04:33:49.724Z,13.40
2019-03-20T04:34:49.752Z,13.40
2019-03-20T04:35:49.783Z,16.30
2019-03-20T04:36:49.828Z,12.90
2019-03-20T04:37:49.854Z,11.60
2019-03-20T04:38:49.890Z,12.20
2019-03-20T04:39:49.922Z,12.60
2019-03-20T04:40:49.956Z,10.50
2019-03-20T04:41:49.991Z,13.00
2019-03-20T04:42:50.025Z,13.70
2019-03-20T04:43:50.061Z,11.10
2019-03-20T04:44:50.100Z,12.10
2019-03-20T04:45:50.128Z,17.90
2019-03-20T04:46:50.169Z,12.30
2019-03-20T04:47:50.201Z,13.60
2019-03-20T04:48:50.235Z,12.10
2019-03-20T04:49:50.268Z,13.40
2019-03-20T04:50:50.301Z,13.70
2019-03-20T04:51:50.338Z,15.80
2019-03-20T04:52:50.369Z,16.70
2019-03-20T04:53:50.406Z,13.80
2019-03-20T04:54:50.438Z,14.80
2019-03-20T04:55:50.473Z,14.20
2019-03-20T04:56:50.507Z,15.50
2019-03-20T04:57:50.541Z,14.30
2019-03-20T04:58:50.576Z,10.60
2019-03-20T04:59:50.608Z,11.70
2019-03-20T05:00:50.727Z,13.40
2019-03-20T05:01:50.679Z,14.40
2019-03-20T05:02:50.760Z,13.70
2019-03-20T05:03:50.748Z,13.70
2019-03-20T05:04:50.789Z,14.40
2019-03-20T05:05:50.817Z,14.20
2019-03-20T05:06:58.918Z,11.90
2019-03-20T05:07:50.897Z,14.30
2019-03-20T05:08:50.917Z,14.50
2019-03-20T05:09:50.957Z,12.10
2019-03-20T05:10:50.988Z,10.40
2019-03-20T05:11:51.025Z,13.80
2019-03-20T05:12:51.055Z,11.90
2019-03-20T05:13:51.088Z,13.30
2019-03-20T05:14:51.125Z,11.90
2019-03-20T05:15:51.168Z,13.10
2019-03-20T05:16:51.191Z,12.00
2019-03-20T05:17:51.236Z,14.20
2019-03-20T05:18:51.262Z,14.40
2019-03-20T05:19:51.301Z,14.10
2019-03-20T05:20:51.330Z,16.30
2019-03-20T05:21:51.364Z,17.70
2019-03-20T05:22:51.398Z,16.20
2019-03-20T05:23:51.431Z,17.90
2019-03-20T05:24:51.467Z,15.20
2019-03-20T05:25:51.501Z,12.90
2019-03-20T05:26:51.537Z,16.40
2019-03-20T05:27:51.571Z,14.40
2019-03-20T05:28:51.605Z,15.80
2019-03-20T05:29:51.637Z,14.40
2019-03-20T05:30:51.672Z,15.20
2019-03-20T05:31:51.712Z,10.90
2019-03-20T05:32:51.739Z,13.10
2019-03-20T05:33:51.780Z,12.90
2019-03-20T05:34:51.810Z,13.00
2019-03-20T05:35:51.843Z,14.10
2019-03-20T05:36:51.876Z,12.90
2019-03-20T05:37:51.912Z,14.10
2019-03-20T05:38:51.944Z,15.10
2019-03-20T05:39:51.981Z,14.20
2019-03-20T05:40:52.018Z,13.20
2019-03-20T05:41:52.051Z,16.20
2019-03-20T05:42:52.081Z,14.50
2019-03-20T05:43:52.117Z,18.10
2019-03-20T05:44:52.153Z,14.70
2019-03-20T05:45:52.185Z,18.50
2019-03-20T05:46:52.223Z,12.00
2019-03-20T05:47:52.254Z,14.10
2019-03-20T05:48:52.287Z,15.40
2019-03-20T05:49:52.321Z,11.60
2019-03-20T05:50:52.356Z,17.00
2019-03-20T05:51:52.391Z,15.30
2019-03-20T05:52:52.426Z,15.30
2019-03-20T05:53:52.459Z,14.40
2019-03-20T05:54:52.493Z,13.10
2019-03-20T05:55:52.535Z,17.50
2019-03-20T05:56:52.560Z,14.90
2019-03-20T05:57:52.597Z,13.90
2019-03-20T05:58:52.629Z,13.40
2019-03-20T05:59:52.673Z,11.30
2019-03-20T06:00:52.702Z,12.40
2019-03-20T06:01:52.734Z,13.00
2019-03-20T06:02:52.767Z,13.70
2019-03-20T06:03:52.814Z,13.30
2019-03-20T06:04:52.835Z,16.50
2019-03-20T06:05:52.871Z,11.80
2019-03-20T06:06:52.904Z,13.70
2019-03-20T06:07:52.938Z,14.00
2019-03-20T06:08:52.971Z,13.90
2019-03-20T06:09:53.007Z,12.00
2019-03-20T06:10:53.039Z,14.50
2019-03-20T06:11:53.074Z,14.10
2019-03-20T06:12:53.108Z,12.00
2019-03-20T06:13:53.147Z,14.50
2019-03-20T06:14:53.176Z,16.70
2019-03-20T06:15:53.211Z,14.50
2019-03-20T06:16:53.246Z,13.60
2019-03-20T06:17:53.279Z,12.70
2019-03-20T06:18:53.323Z,11.90
2019-03-20T06:19:53.351Z,15.80
2019-03-20T06:20:53.384Z,12.00
2019-03-20T06:21:53.418Z,14.00
2019-03-20T06:22:53.460Z,13.40
2019-03-20T06:23:53.490Z,16.70
2019-03-20T06:24:53.527Z,11.60
2019-03-20T06:25:53.554Z,10.80
2019-03-20T06:26:53.591Z,14.20
2019-03-20T06:27:53.626Z,13.30
2019-03-20T06:28:53.658Z,13.90
2019-03-20T06:29:53.701Z,14.60
2019-03-20T06:30:53.727Z,13.70
2019-03-20T06:31:53.761Z,15.60
2019-03-20T06:32:53.795Z,13.20
2019-03-20T06:33:53.832Z,14.50
2019-03-20T06:34:53.875Z,12.60
2019-03-20T06:35:53.899Z,13.40
2019-03-20T06:36:53.942Z,14.20
2019-03-20T06:37:53.969Z,14.30
2019-03-20T06:38:54.002Z,13.70
2019-03-20T06:39:54.048Z,12.80
2019-03-20T06:40:54.120Z,13.80
2019-03-20T06:41:54.107Z,15.20
2019-03-20T06:42:55.419Z,13.90
2019-03-20T06:43:54.177Z,14.10
2019-03-20T06:44:54.208Z,13.40
2019-03-20T06:45:54.244Z,14.60
2019-03-20T06:46:54.278Z,13.60
2019-03-20T06:47:54.315Z,15.50
2019-03-20T06:48:54.356Z,16.50
2019-03-20T06:49:54.383Z,14.90
2019-03-20T06:50:54.521Z,16.80
2019-03-20T06:51:54.451Z,13.20
2019-03-20T06:52:54.492Z,17.10
2019-03-20T06:53:54.521Z,15.80
2019-03-20T06:54:54.558Z,15.10
2019-03-20T06:55:54.595Z,15.00
2019-03-20T06:56:54.637Z,16.20
2019-03-20T06:57:54.761Z,14.30
2019-03-20T06:58:54.694Z,13.80
2019-03-20T06:59:54.731Z,12.60
2019-03-20T07:00:54.764Z,13.70
2019-03-20T07:01:54.810Z,13.90
2019-03-20T07:02:54.833Z,14.60
2019-03-20T07:03:54.868Z,14.70
2019-03-20T07:04:54.964Z,15.30
2019-03-20T07:05:54.949Z,14.60
2019-03-20T07:06:54.970Z,14.50
2019-03-20T07:07:55.008Z,14.00
2019-03-20T07:08:55.044Z,14.60
2019-03-20T07:09:55.081Z,13.70
2019-03-20T07:10:55.120Z,13.70
2019-03-20T07:11:55.148Z,15.70
2019-03-20T07:12:55.185Z,16.00
2019-03-20T07:13:55.216Z,14.50
2019-03-20T07:14:55.250Z,15.90
2019-03-20T07:15:55.285Z,13.80
2019-03-20T07:16:55.329Z,13.80
2019-03-20T07:17:55.356Z,16.70
2019-03-20T07:18:55.390Z,16.20
2019-03-20T07:19:55.433Z,19.30
2019-03-20T07:20:55.459Z,14.60
2019-03-20T07:21:55.498Z,17.80
2019-03-20T07:22:55.529Z,11.70
2019-03-20T07:23:55.563Z,16.60
2019-03-20T07:24:55.600Z,15.70
2019-03-20T07:25:55.633Z,14.50
2019-03-20T07:26:55.729Z,11.70
2019-03-20T07:27:55.704Z,11.10
2019-03-20T07:28:55.740Z,14.30
2019-03-20T07:29:55.777Z,12.80
2019-03-20T07:30:55.809Z,11.30
2019-03-20T07:31:55.845Z,14.00
2019-03-20T07:32:55.880Z,12.00
2019-03-20T07:33:55.919Z,13.00
2019-03-20T07:34:55.964Z,14.50
2019-03-20T07:35:55.990Z,13.80
2019-03-20T07:36:56.032Z,15.20
2019-03-20T07:37:56.530Z,15.60
2019-03-20T07:38:56.096Z,17.80
2019-03-20T07:39:56.127Z,15.10
2019-03-20T07:40:56.168Z,14.50
2019-03-20T07:41:56.197Z,12.00
2019-03-20T07:42:56.240Z,15.60
2019-03-20T07:43:56.270Z,11.20
2019-03-20T07:44:56.311Z,15.80
2019-03-20T07:45:56.344Z,13.80
2019-03-20T07:46:56.382Z,13.20
2019-03-20T07:47:56.411Z,14.80
2019-03-20T07:48:56.453Z,10.90
2019-03-20T07:49:56.482Z,13.50
2019-03-20T07:50:56.531Z,11.40
2019-03-20T07:51:56.550Z,13.60
2019-03-20T07:52:56.586Z,14.10
2019-03-20T07:53:56.762Z,12.60
2019-03-20T07:54:56.657Z,10.50
2019-03-20T07:55:56.699Z,13.20
2019-03-20T07:56:56.731Z,13.60
2019-03-20T07:57:56.763Z,13.10
2019-03-20T07:58:56.802Z,12.60
2019-03-20T07:59:56.835Z,15.70
2019-03-20T08:00:56.871Z,11.50
2019-03-20T08:01:56.906Z,13.30
2019-03-20T08:02:56.941Z,11.90
2019-03-20T08:03:56.978Z,12.60
2019-03-20T08:04:57.020Z,12.80
2019-03-20T08:05:57.050Z,12.80
2019-03-20T08:06:57.096Z,12.00
2019-03-20T08:08:06.835Z,10.40
2019-03-20T08:08:57.165Z,12.60
2019-03-20T08:09:57.195Z,9.90
2019-03-20T08:10:57.242Z,11.50
2019-03-20T08:11:57.274Z,9.80
2019-03-20T08:12:57.306Z,11.90
2019-03-20T08:13:57.336Z,12.00
2019-03-20T08:14:57.372Z,12.40
2019-03-20T08:15:57.410Z,11.90
2019-03-20T08:16:57.448Z,11.40
2019-03-20T08:17:57.482Z,10.80
2019-03-20T08:18:57.525Z,14.30
2019-03-20T08:19:57.560Z,11.50
2019-03-20T08:20:57.589Z,13.20
2019-03-20T08:21:57.626Z,12.00
2019-03-20T08:22:57.665Z,14.40
2019-03-20T08:23:57.696Z,13.80
2019-03-20T08:24:57.733Z,11.80
2019-03-20T08:25:57.769Z,14.00
2019-03-20T08:26:57.802Z,13.00
2019-03-20T08:27:57.848Z,12.30
2019-03-20T08:28:57.883Z,12.50
2019-03-20T08:29:57.916Z,17.20
2019-03-20T08:30:57.962Z,16.20
2019-03-20T08:31:57.985Z,13.60
2019-03-20T08:32:58.020Z,11.50
2019-03-20T08:33:58.058Z,10.30
2019-03-20T08:34:58.124Z,10.90
2019-03-20T08:35:58.127Z,10.80
2019-03-20T08:36:58.166Z,10.10
2019-03-20T08:37:58.210Z,21.70
2019-03-20T08:38:58.237Z,9.10
2019-03-20T08:39:58.276Z,11.20
2019-03-20T08:40:58.311Z,12.60
2019-03-20T08:41:58.347Z,13.60
2019-03-20T08:42:58.382Z,16.20
2019-03-20T08:43:58.419Z,11.00
2019-03-20T08:44:58.459Z,13.20
2019-03-20T08:45:58.495Z,10.80
2019-03-20T08:46:58.527Z,12.90
2019-03-20T08:47:58.566Z,15.90
2019-03-20T08:48:58.604Z,18.20
2019-03-20T08:49:58.640Z,10.30
2019-03-20T08:50:58.674Z,12.30
2019-03-20T08:51:58.713Z,10.80
2019-03-20T08:52:58.748Z,16.50
2019-03-20T08:53:58.795Z,13.30
2019-03-20T08:54:58.822Z,10.80
2019-03-20T08:55:58.863Z,12.80
2019-03-20T08:56:58.950Z,15.70
2019-03-20T08:57:58.932Z,15.00
2019-03-20T08:58:58.979Z,44.60
2019-03-20T08:59:59.006Z,26.10
2019-03-20T09:00:59.079Z,11.50
2019-03-20T09:01:59.077Z,11.80
2019-03-20T09:02:59.126Z,11.30
2019-03-20T09:03:59.150Z,13.80
2019-03-20T09:04:59.187Z,11.40
2019-03-20T09:05:59.228Z,11.40
2019-03-20T09:06:59.262Z,11.90
2019-03-20T09:07:59.298Z,10.00
2019-03-20T09:08:59.335Z,10.40
2019-03-20T09:09:59.376Z,10.70
2019-03-20T09:10:59.560Z,10.90
2019-03-20T09:11:59.447Z,9.10
2019-03-20T09:12:59.486Z,11.10
2019-03-20T09:13:59.521Z,11.80
2019-03-20T09:14:59.556Z,11.30
2019-03-20T09:15:59.597Z,10.70
2019-03-20T09:16:59.632Z,7.10
2019-03-20T09:17:59.672Z,11.20
2019-03-20T09:18:59.707Z,9.00
2019-03-20T09:19:59.746Z,10.10
2019-03-20T09:20:59.781Z,9.10
2019-03-20T09:21:59.829Z,10.30
2019-03-20T09:22:59.856Z,10.00
2019-03-20T09:23:59.898Z,8.70
2019-03-20T09:24:59.931Z,9.60
2019-03-20T09:25:59.969Z,8.50
2019-03-20T09:27:00.003Z,9.20
2019-03-20T09:28:00.201Z,6.90
2019-03-20T09:29:00.080Z,8.60
2019-03-20T09:30:00.168Z,9.70
2019-03-20T09:31:00.157Z,9.50
2019-03-20T09:32:00.201Z,9.20
2019-03-20T09:33:00.233Z,10.30
2019-03-20T09:34:00.411Z,9.80
2019-03-20T09:35:00.411Z,10.20
2019-03-20T09:36:00.340Z,8.90
2019-03-20T09:37:00.386Z,9.20
2019-03-20T09:38:00.418Z,12.40
2019-03-20T09:39:00.452Z,11.90
2019-03-20T09:40:00.491Z,11.10
2019-03-20T09:41:00.529Z,10.30
2019-03-20T09:42:00.566Z,13.10
2019-03-20T09:43:00.603Z,12.60
2019-03-20T09:44:00.642Z,13.80
2019-03-20T09:45:00.684Z,11.30
2019-03-20T09:46:00.717Z,9.80
2019-03-20T09:47:00.755Z,10.20
2019-03-20T09:48:00.794Z,10.90
2019-03-20T09:49:00.832Z,8.20
2019-03-20T09:50:00.883Z,12.70
2019-03-20T09:51:00.907Z,9.80
2019-03-20T09:52:01.014Z,8.70
2019-03-20T09:53:00.985Z,9.90
2019-03-20T09:54:01.022Z,8.60
2019-03-20T09:55:01.067Z,8.90
2019-03-20T09:56:01.108Z,7.50
2019-03-20T09:57:01.138Z,10.20
2019-03-20T09:58:11.231Z,11.70
2019-03-20T09:59:01.213Z,11.20
2019-03-20T10:00:01.260Z,9.80
2019-03-20T10:01:01.289Z,11.80
2019-03-20T10:02:02.925Z,9.80
2019-03-20T10:03:01.365Z,11.40
2019-03-20T10:04:01.404Z,9.00
2019-03-20T10:05:01.440Z,9.70
2019-03-20T10:06:01.478Z,11.30
2019-03-20T10:07:01.515Z,13.00
2019-03-20T10:08:01.556Z,9.00
2019-03-20T10:09:02.044Z,8.90
2019-03-20T10:10:01.634Z,10.20
2019-03-20T10:11:01.673Z,11.30
2019-03-20T10:12:01.715Z,11.10
2019-03-20T10:13:01.748Z,8.70
2019-03-20T10:14:01.789Z,9.50
2019-03-20T10:15:01.831Z,9.50
2019-03-20T10:16:01.865Z,10.60
2019-03-20T10:17:01.911Z,14.50
2019-03-20T10:18:01.944Z,12.20
2019-03-20T10:19:01.982Z,11.70
2019-03-20T10:20:02.031Z,10.10
2019-03-20T10:21:02.067Z,10.20
2019-03-20T10:22:02.099Z,12.40
2019-03-20T10:23:02.141Z,13.20
2019-03-20T10:24:02.177Z,10.30
2019-03-20T10:25:02.216Z,9.90
2019-03-20T10:26:02.254Z,8.60
2019-03-20T10:27:02.293Z,7.40
2019-03-20T10:28:02.335Z,9.40
2019-03-20T10:29:02.373Z,11.80
2019-03-20T10:30:02.410Z,10.70
2019-03-20T10:31:02.447Z,10.10
2019-03-20T10:32:02.528Z,6.90
2019-03-20T10:33:02.536Z,9.20
2019-03-20T10:34:02.569Z,12.10
2019-03-20T10:35:02.612Z,10.50
2019-03-20T10:36:02.643Z,10.40
2019-03-20T10:37:02.691Z,11.10
2019-03-20T10:38:02.722Z,9.60
2019-03-20T10:39:06.763Z,9.80
2019-03-20T10:40:02.800Z,10.70
2019-03-20T10:41:02.839Z,9.40
2019-03-20T10:42:02.881Z,10.60
2019-03-20T10:43:02.919Z,10.80
2019-03-20T10:44:02.960Z,13.10
2019-03-20T10:45:03.002Z,12.90
2019-03-20T10:46:03.041Z,8.90
2019-03-20T10:47:03.086Z,9.50
2019-03-20T10:48:03.129Z,8.10
2019-03-20T10:49:03.154Z,13.20
2019-03-20T10:50:03.205Z,9.90
2019-03-20T10:51:03.249Z,10.50
2019-03-20T10:52:03.275Z,10.10
2019-03-20T10:53:03.319Z,9.20
2019-03-20T10:54:03.353Z,9.40
2019-03-20T10:55:03.404Z,9.00
2019-03-20T10:56:03.449Z,11.70
2019-03-20T10:57:03.485Z,12.00
2019-03-20T10:58:03.516Z,11.80
2019-03-20T10:59:03.550Z,10.60
2019-03-20T11:00:03.593Z,7.80
2019-03-20T11:01:03.642Z,9.00
2019-03-20T11:02:03.683Z,9.50
2019-03-20T11:03:03.713Z,9.70
2019-03-20T11:04:03.840Z,9.10
2019-03-20T11:05:03.793Z,9.40
2019-03-20T11:06:03.834Z,9.70
2019-03-20T11:07:03.870Z,8.70
2019-03-20T11:08:03.916Z,10.70
2019-03-20T11:09:03.962Z,9.30
2019-03-20T11:10:04.002Z,9.80
2019-03-20T11:11:04.042Z,11.60
2019-03-20T11:12:04.073Z,10.10
2019-03-20T11:13:04.111Z,6.90
2019-03-20T11:14:04.188Z,9.50
2019-03-20T11:15:04.204Z,8.60
2019-03-20T11:16:04.234Z,10.50
2019-03-20T11:17:04.274Z,7.20
2019-03-20T11:18:04.314Z,9.70
2019-03-20T11:19:04.364Z,12.60
2019-03-20T11:20:04.402Z,7.80
2019-03-20T11:21:04.434Z,7.70
2019-03-20T11:22:04.823Z,8.20
2019-03-20T11:23:04.514Z,8.30
2019-03-20T11:24:04.554Z,8.90
2019-03-20T11:25:04.595Z,11.60
2019-03-20T11:26:04.653Z,9.20
2019-03-20T11:27:04.679Z,7.70
2019-03-20T11:28:04.733Z,8.30
2019-03-20T11:29:04.758Z,8.60
2019-03-20T11:30:04.803Z,9.20
2019-03-20T11:31:04.841Z,9.20
2019-03-20T11:32:04.886Z,9.10
2019-03-20T11:33:04.923Z,10.00
2019-03-20T11:34:04.979Z,8.70
2019-03-20T11:35:05.000Z,9.10
2019-03-20T11:36:05.049Z,6.00
2019-03-20T11:37:05.092Z,10.70
2019-03-20T11:38:05.123Z,8.20
2019-03-20T11:39:05.163Z,7.80
2019-03-20T11:40:05.206Z,9.70
2019-03-20T11:41:05.262Z,8.80
2019-03-20T11:42:05.287Z,8.10
2019-03-20T11:43:05.391Z,7.00
2019-03-20T11:44:05.375Z,8.60
2019-03-20T11:45:05.409Z,10.90
2019-03-20T11:46:05.451Z,10.20
2019-03-20T11:47:05.493Z,9.00
2019-03-20T11:48:05.533Z,8.90
2019-03-20T11:49:05.582Z,11.40
2019-03-20T11:50:05.615Z,9.30
2019-03-20T11:51:05.658Z,11.00
2019-03-20T11:52:06.399Z,11.40
2019-03-20T11:53:05.738Z,7.10
2019-03-20T11:54:05.778Z,7.00
2019-03-20T11:55:05.824Z,9.10
2019-03-20T11:56:05.862Z,8.70
2019-03-20T11:57:05.901Z,5.70
2019-03-20T11:58:05.943Z,5.80
2019-03-20T11:59:05.984Z,7.50
2019-03-20T12:00:06.026Z,8.20
2019-03-20T12:01:06.071Z,8.00
2019-03-20T12:02:06.107Z,6.80
2019-03-20T12:03:06.157Z,6.90
2019-03-20T12:04:06.203Z,7.30
2019-03-20T12:05:06.237Z,9.10
2019-03-20T12:06:06.272Z,7.10
2019-03-20T12:07:06.320Z,9.80
2019-03-20T12:08:06.425Z,8.70
2019-03-20T12:09:06.396Z,8.50
2019-03-20T12:10:06.444Z,7.40
2019-03-20T12:11:06.478Z,5.30
2019-03-20T12:12:06.531Z,9.60
2019-03-20T12:13:06.569Z,7.00
2019-03-20T12:14:06.608Z,5.80
2019-03-20T12:15:06.643Z,7.20
2019-03-20T12:16:06.685Z,6.70
2019-03-20T12:17:06.726Z,6.90
2019-03-20T12:18:06.770Z,6.50
2019-03-20T12:19:06.823Z,8.00
2019-03-20T12:20:06.851Z,6.80
2019-03-20T12:21:06.893Z,6.30
2019-03-20T12:22:06.935Z,4.90
2019-03-20T12:23:06.974Z,6.90
2019-03-20T12:24:07.018Z,9.70
2019-03-20T12:25:07.066Z,9.70
2019-03-20T12:26:07.100Z,5.90
2019-03-20T12:27:15.219Z,7.90
2019-03-20T12:28:07.184Z,6.10
2019-03-20T12:29:07.235Z,6.20
2019-03-20T12:30:07.340Z,5.80
2019-03-20T12:31:07.315Z,5.90
2019-03-20T12:32:07.355Z,5.50
2019-03-20T12:33:07.407Z,6.70
2019-03-20T12:34:07.430Z,5.90
2019-03-20T12:35:07.474Z,6.00
2019-03-20T12:36:07.514Z,5.70
2019-03-20T12:37:07.555Z,7.60
2019-03-20T12:38:14.366Z,9.40
2019-03-20T12:39:07.650Z,7.90
2019-03-20T12:40:07.679Z,8.50
2019-03-20T12:41:07.729Z,8.00
2019-03-20T12:42:07.763Z,6.90
2019-03-20T12:43:07.804Z,7.00
2019-03-20T12:44:07.858Z,7.20
2019-03-20T12:45:07.888Z,8.60
2019-03-20T12:46:07.929Z,5.50
2019-03-20T12:47:07.971Z,7.00
2019-03-20T12:48:08.128Z,6.50
2019-03-20T12:49:08.061Z,4.40
2019-03-20T12:50:08.099Z,6.80
2019-03-20T12:51:08.137Z,5.50
2019-03-20T12:52:08.186Z,4.30
2019-03-20T12:53:08.224Z,7.40
2019-03-20T12:54:08.315Z,6.30
2019-03-20T12:55:08.305Z,6.60
2019-03-20T12:56:08.347Z,5.80
2019-03-20T12:57:08.391Z,4.70
2019-03-20T12:58:08.432Z,5.20